AirNav   TITAN Aviation Fuels
 
 1065 users online  

58IS VA Medical Center Heliport
Marion, Illinois, USA

GOING TO MARION?


FAA INFORMATION EFFECTIVE 22 APRIL 2021

Location

FAA Identifier: 58IS
Lat/Long: 37-43-23.1800N 088-57-17.6300W
37-43.386333N 088-57.293833W
37.7231056,-88.9548972
(estimated)
Elevation: 464 ft. / 141 m (estimated)
Variation: 01E (1985)
From city: 1 mile NE of MARION, IL
Time zone: UTC -5 (UTC -6 during Standard Time)
Zip code: 62959

Heliport Operations

Heliport use: Private use, MEDICAL USE.
Activation date: 01/1988
Control tower: no
ARTCC: KANSAS CITY CENTER
FSS: COLUMBIA FLIGHT SERVICE STATION
Attendance: ON CALL
FOR SERVICE CALL ARP MAGR 618-997-5311 EXT. 54293.
Wind indicator: lighted
Segmented circle: no
Lights: FOR PERIMETER LGTS PHONE 618-997-5311.
Beacon: white-green-yellow (heliport)

Heliport Communications

WX AWOS-3 at MWA (3 nm NW): 119.675 (618-942-8877)
WX ASOS at MDH (14 nm W): PHONE 618-529-1821
WX AWOS-3 at HSB (20 nm E): 135.925 (618-253-3010)

Nearby radio navigation aids

VOR radial/distance  VOR name  Freq  Var
MWAr121/3.3MARION VOR/DME110.4004E

 
NDB name  Hdg/Dist  Freq  Var  ID
JONNY173/7.038201EMW -- .--

Heliport Services

Runway Information

Helipad H1

Dimensions: 50 x 50 ft. / 15 x 15 m
Surface: concrete, in good condition
Runway edge lights: PERI
PERIMETER LGTS.
Operational restrictions: APPROACH AND DEPARTURE IS FROM SOUTHWEST ONLY.
Latitude: 37-43.386333N
Longitude: 088-57.293833W
Elevation: 464.0 ft.
Traffic pattern: leftleft

Heliport Ownership and Management from official FAA records

Ownership: Publicly-owned
Owner: VETERANS ADMIN MEDICAL CENTER
2401 WEST MAIN STREET
MARION, IL 62959
Phone 618-997-5311
Manager: JASON ANDERSON
VETERANS ADMIN MEDICAL CENTER, 2401 WEST MAIN ST
MARION, IL 62959
Phone (618) 997-5311
EXT 54505

Additional Remarks

FOR CD CTC KANSAS CITY ARTCC AT 913-254-8508.

Instrument Procedures

There are no published instrument procedures at 58IS.

Some nearby airports with instrument procedures:

KMWA - Veterans Airport of Southern Illinois (3 nm NW)
KMDH - Southern Illinois Airport (14 nm W)
H96 - Benton Municipal Airport (17 nm N)
KHSB - Harrisburg-Raleigh Airport (20 nm E)
KPJY - Pinckneyville-Du Quoin Airport (25 nm NW)
 
Loc | Ops | Rwys | IFR | FBO | Links
Com | Nav | Svcs | Stats | Notes
Area around 58IS (VA Medical Center Heliport)
 
Road maps at: MapQuest Bing Google
 
Aerial photo
No photo
 
Sectional chart

 
Airport distance calculator
Flying to VA Medical Center Heliport? Find the distance to fly.

From to 58IS

Sunrise and sunset
Times for 15-May-2021
 Local
(UTC-5)
 Zulu
(UTC)
Morning civil twilight05:1810:18
Sunrise05:4710:47
Sunset19:5700:57
Evening civil twilight20:2701:27

Current date and time
Zulu (UTC)  15-May-2021 21:49:19
Local (UTC-5)  15-May-2021 16:49:19
 
METAR
KMWA 
3nm NW 
152045Z 03006KT 10SM -RA OVC090 18/10 A3021
KMDH 
14nm W 
152052Z 03005KT 10SM FEW065 SCT080 OVC100 18/09 A3020 RMK AO2 RAE38 SLP225 P0000 60000 T01780094 58010
TAF
KMVN 
36nm N 
151725Z 1518/1618 16006KT P6SM BKN120 FM151900 17005KT P6SM VCSH OVC100 FM160800 00000KT 6SM -SHRA BR BKN025 FM161200 15004KT 6SM SHRA BR OVC010
KPAH 
40nm S 
151725Z 1518/1618 VRB05KT P6SM BKN120 FM160000 00000KT P6SM VCSH OVC080 FM161200 VRB04KT P6SM BKN045 FM161600 20005KT P6SM BKN026
KCGI 
42nm SW 
151725Z 1518/1618 16006KT P6SM VCSH OVC100 FM161000 VRB04KT P6SM VCSH BKN045 FM161200 VRB04KT P6SM BKN035 FM161600 20006KT P6SM BKN025
NOTAMs
Click for the latest NOTAMs
NOTAMs are issued by the DoD/FAA and will open in a separate window not controlled by AirNav.

 

 
 

Would you like to see your business listed on this page?

 If your business provides an interesting product or service to pilots, flight crews, aircraft, or users of the VA Medical Center Heliport, you should consider listing it here.  To start the listing process, click on the button below
 
Add a business
 

Other Pages about VA Medical Center Heliport

Update a link
 
Copyright © AirNav, LLC. All rights reserved. Privacy Policy  Contact